Time;durP1;ratioP1;P1;durP2;ratioP2;P2;SDS_P1;SDS_P2;PMS_P1;PMS_P2;Temp;Humidity;BMP_temperature;BMP_pressure;BME280_temperature;BME280_humidity;BME280_pressure;Samples;Min_cycle;Max_cycle;Signal;HPM_P1;HPM_P2
2022/06/23 00:00:26;;;;;;;;;;;;;;;25.75;63.21;99241.34;2067033;28;19975;-49
2022/06/23 00:01:41;;;;;;;;;;;;;;;25.75;62.16;99248.94;2067139;28;19924;-50
2022/06/23 00:02:41;;;;;;;;;;;;;;;25.74;62.64;99244.63;2066901;28;20015;-51
2022/06/23 00:03:42;;;;;;;;;;;;;;;25.74;62.97;99245.38;2063619;28;19914;-49
2022/06/23 00:04:44;;;;;;;;;;;;;;;25.73;62.60;99237.53;2065142;28;19914;-50
2022/06/23 00:05:48;;;;;;;;;;;;;;;25.72;61.88;99245.09;2064170;28;19921;-50
2022/06/23 00:06:51;;;;;;;;;;;;;;;25.72;62.15;99236.78;2067984;28;19914;-48
2022/06/23 00:07:53;;;;;;;;;;;;;;;25.72;62.69;99233.22;2066090;28;19939;-52
2022/06/23 00:08:54;;;;;;;;;;;;;;;25.72;62.36;99231.22;2062587;28;20011;-50
2022/06/23 00:09:56;;;;;;;;;;;;;;;25.72;62.51;99233.22;2066160;28;19917;-51
2022/06/23 00:10:57;;;;;;;;;;;;;;;25.71;62.09;99229.69;2066211;28;20233;-48
2022/06/23 00:11:57;;;;;;;;;;;;;;;25.71;62.28;99226.91;2063617;28;19936;-50
2022/06/23 00:12:58;;;;;;;;;;;;;;;25.72;62.15;99231.22;2067054;28;19931;-51
2022/06/23 00:14:05;;;;;;;;;;;;;;;25.71;61.87;99234.47;2064761;28;19961;-48
2022/06/23 00:15:06;;;;;;;;;;;;;;;25.72;62.51;99239.53;2069006;28;19917;-49
2022/06/23 00:16:15;;;;;;;;;;;;;;;25.71;62.67;99231.69;2068925;28;19953;-48
2022/06/23 00:17:24;;;;;;;;;;;;;;;25.70;63.04;99239.25;2065050;28;19967;-48
2022/06/23 00:18:26;;;;;;;;;;;;;;;25.70;62.22;99239.25;2065681;28;19921;-48
2022/06/23 00:19:27;;;;;;;;;;;;;;;25.69;62.33;99240.50;2063861;28;19924;-51
2022/06/23 00:20:37;;;;;;;;;;;;;;;25.70;61.57;99232.97;2068023;28;20328;-49
2022/06/23 00:21:38;;;;;;;;;;;;;;;25.68;61.54;99230.66;2065516;28;19917;-51
2022/06/23 00:22:39;;;;;;;;;;;;;;;25.68;62.53;99227.88;2068271;28;20326;-48
2022/06/23 00:23:41;;;;;;;;;;;;;;;25.68;62.08;99230.66;2069109;28;19920;-48
2022/06/23 00:24:42;;;;;;;;;;;;;;;25.68;61.74;99227.88;2067467;28;19963;-48
2022/06/23 00:25:50;;;;;;;;;;;;;;;25.68;61.92;99230.66;2067806;28;19921;-51
2022/06/23 00:26:51;;;;;;;;;;;;;;;25.67;62.45;99231.13;2068580;28;19952;-48
2022/06/23 00:27:52;;;;;;;;;;;;;;;25.66;61.97;99233.13;2068691;28;19929;-48
2022/06/23 00:29:01;;;;;;;;;;;;;;;25.65;62.29;99235.16;2068898;28;19972;-46
2022/06/23 00:30:05;;;;;;;;;;;;;;;25.64;61.45;99230.84;2068122;28;19917;-50
2022/06/23 00:31:06;;;;;;;;;;;;;;;25.64;61.51;99230.09;2066718;28;20440;-49
2022/06/23 00:32:09;;;;;;;;;;;;;;;25.65;62.11;99226.06;2068893;28;19917;-48
2022/06/23 00:33:21;;;;;;;;;;;;;;;25.64;62.52;99230.84;2062225;28;19910;-50
2022/06/23 00:34:24;;;;;;;;;;;;;;;25.65;62.59;99223.28;2066369;28;20362;-50
2022/06/23 00:35:26;;;;;;;;;;;;;;;25.65;62.67;99226.81;2067472;28;20061;-48
2022/06/23 00:36:37;;;;;;;;;;;;;;;25.65;62.75;99221.28;2067400;28;19955;-50
2022/06/23 00:37:37;;;;;;;;;;;;;;;25.65;62.40;99218.50;2067549;28;20185;-48
2022/06/23 00:38:38;;;;;;;;;;;;;;;25.65;62.15;99217.72;2066697;28;20595;-47
2022/06/23 00:39:53;;;;;;;;;;;;;;;25.65;62.14;99217.72;2068994;28;19996;-49
2022/06/23 00:40:54;;;;;;;;;;;;;;;25.64;62.42;99211.41;2065731;28;20399;-47
2022/06/23 00:41:54;;;;;;;;;;;;;;;25.63;63.06;99220.25;2065071;28;20016;-48
2022/06/23 00:43:04;;;;;;;;;;;;;;;25.63;62.28;99214.69;2068847;28;19935;-50
2022/06/23 00:44:06;;;;;;;;;;;;;;;25.63;62.53;99206.38;2067602;28;20155;-48
2022/06/23 00:45:09;;;;;;;;;;;;;;;25.63;61.97;99200.84;2067429;28;19971;-50
2022/06/23 00:46:15;;;;;;;;;;;;;;;25.63;62.45;99196.06;2068447;28;19984;-50
2022/06/23 00:47:20;;;;;;;;;;;;;;;25.64;62.48;99199.59;2066467;28;19939;-50
2022/06/23 00:48:24;;;;;;;;;;;;;;;25.63;62.29;99209.16;2062716;28;19921;-51
2022/06/23 00:49:26;;;;;;;;;;;;;;;25.63;62.12;99203.59;2068700;28;19994;-51
2022/06/23 00:50:33;;;;;;;;;;;;;;;25.63;62.59;99204.38;2067103;28;19932;-49
2022/06/23 00:51:40;;;;;;;;;;;;;;;25.63;62.47;99209.16;2068166;28;19921;-49
2022/06/23 00:52:52;;;;;;;;;;;;;;;25.63;62.61;99209.16;2067143;28;19976;-48
2022/06/23 00:54:03;;;;;;;;;;;;;;;25.63;62.09;99214.69;2062383;28;20458;-48
2022/06/23 00:55:13;;;;;;;;;;;;;;;25.63;62.53;99209.16;2065349;28;20753;-52
2022/06/23 00:56:19;;;;;;;;;;;;;;;25.62;62.88;99207.63;2069563;28;19924;-48
2022/06/23 00:57:19;;;;;;;;;;;;;;;25.62;62.78;99210.38;2069000;28;19952;-48
2022/06/23 00:58:31;;;;;;;;;;;;;;;25.62;62.51;99202.06;2066584;28;19928;-48
2022/06/23 00:59:55;;;;;;;;;;;;;;;25.62;63.44;99205.59;2063305;28;20165;-50
2022/06/23 01:01:01;;;;;;;;;;;;;;;25.61;63.90;99206.06;2052576;28;20000;-48
2022/06/23 01:02:09;;;;;;;;;;;;;;;25.62;63.83;99202.06;2062650;28;20094;-49
2022/06/23 01:03:10;;;;;;;;;;;;;;;25.61;64.02;99201.31;2065122;28;19921;-49
2022/06/23 01:04:19;;;;;;;;;;;;;;;25.61;64.30;99200.53;2069220;28;19921;-47
2022/06/23 01:05:27;;;;;;;;;;;;;;;25.61;64.18;99206.06;2068280;28;19971;-49
2022/06/23 01:06:33;;;;;;;;;;;;;;;25.60;64.08;99194.22;2059273;28;20004;-51
2022/06/23 01:07:33;;;;;;;;;;;;;;;25.60;64.03;99194.22;2067935;28;19917;-50
2022/06/23 01:08:33;;;;;;;;;;;;;;;25.60;64.08;99202.53;2066004;28;19913;-48
2022/06/23 01:09:34;;;;;;;;;;;;;;;25.59;64.35;99197.50;2069188;28;19967;-49
2022/06/23 01:10:43;;;;;;;;;;;;;;;25.59;63.78;99198.22;2067875;28;19932;-51
2022/06/23 01:11:47;;;;;;;;;;;;;;;25.59;63.46;99200.25;2069114;28;20215;-51
2022/06/23 01:12:52;;;;;;;;;;;;;;;25.58;63.49;99195.97;2069464;28;20386;-48
2022/06/23 01:14:07;;;;;;;;;;;;;;;25.59;63.21;99194.72;2068443;28;19917;-47
2022/06/23 01:15:10;;;;;;;;;;;;;;;25.59;63.12;99191.94;2066895;28;19928;-51
2022/06/23 01:16:11;;;;;;;;;;;;;;;25.59;63.56;99200.25;2068842;28;19917;-48
2022/06/23 01:17:15;;;;;;;;;;;;;;;25.58;63.83;99193.19;2066625;28;20409;-48
2022/06/23 01:18:15;;;;;;;;;;;;;;;25.58;63.59;99195.97;2066834;28;20417;-51
2022/06/23 01:19:43;;;;;;;;;;;;;;;25.57;63.42;99191.66;2070540;28;20318;-48
2022/06/23 01:20:43;;;;;;;;;;;;;;;25.57;64.11;99191.66;2060685;28;20040;-47
2022/06/23 01:21:46;;;;;;;;;;;;;;;25.57;63.99;99188.88;2062950;28;19917;-47
2022/06/23 01:22:49;;;;;;;;;;;;;;;25.55;63.98;99194.09;2069169;28;19905;-51
2022/06/23 01:24:08;;;;;;;;;;;;;;;25.56;63.68;99190.88;2064935;28;19909;-52
2022/06/23 01:25:20;;;;;;;;;;;;;;;25.56;64.33;99190.13;2064138;28;19918;-48
2022/06/23 01:26:27;;;;;;;;;;;;;;;25.55;64.04;99183.81;2062290;28;19909;-49
2022/06/23 01:27:54;;;;;;;;;;;;;;;25.55;64.00;99197.66;2065997;28;20217;-48
2022/06/23 01:29:00;;;;;;;;;;;;;;;25.54;64.31;99196.09;2065387;28;20372;-47
2022/06/23 01:30:05;;;;;;;;;;;;;;;25.55;64.61;99196.88;2064118;28;19914;-48
2022/06/23 01:31:18;;;;;;;;;;;;;;;25.55;64.15;99196.88;2067673;28;20122;-51
2022/06/23 01:32:19;;;;;;;;;;;;;;;25.54;63.54;99195.34;2065987;28;19952;-51
2022/06/23 01:33:33;;;;;;;;;;;;;;;25.53;64.29;99202.16;2064491;28;20343;-49
2022/06/23 01:34:38;;;;;;;;;;;;;;;25.53;64.04;99199.38;2064670;28;20371;-47
2022/06/23 01:35:57;;;;;;;;;;;;;;;25.52;63.65;99186.75;2067392;28;19913;-49
2022/06/23 01:37:03;;;;;;;;;;;;;;;25.51;64.17;99193.53;2074334;28;20296;-50
2022/06/23 01:38:10;;;;;;;;;;;;;;;25.51;63.93;99201.84;2074663;28;20311;-48
2022/06/23 01:39:24;;;;;;;;;;;;;;;25.48;63.42;99189.72;2068682;28;20015;-48
2022/06/23 01:40:31;;;;;;;;;;;;;;;25.49;63.45;99193.22;2067054;28;19997;-48
2022/06/23 01:41:37;;;;;;;;;;;;;;;25.48;63.31;99198.03;2068590;28;19925;-49
2022/06/23 01:43:03;;;;;;;;;;;;;;;25.48;63.66;99198.03;2068865;28;20083;-48
2022/06/23 01:44:13;;;;;;;;;;;;;;;25.48;63.52;99197.28;2064910;28;20644;-49
2022/06/23 01:45:30;;;;;;;;;;;;;;;25.49;64.05;99193.22;2063145;28;20350;-50
2022/06/23 01:46:38;;;;;;;;;;;;;;;25.48;63.48;99198.03;2064863;28;19936;-49
2022/06/23 01:47:54;;;;;;;;;;;;;;;25.47;63.51;99195.75;2067876;28;19916;-48
2022/06/23 01:48:58;;;;;;;;;;;;;;;25.46;63.25;99196.97;2063004;28;19917;-48
2022/06/23 01:50:18;;;;;;;;;;;;;;;25.47;63.48;99195.75;2068225;28;20004;-49
2022/06/23 01:51:30;;;;;;;;;;;;;;;25.47;63.56;99192.97;2067776;28;19972;-48
2022/06/23 01:52:30;;;;;;;;;;;;;;;25.47;63.81;99190.19;2068147;28;20000;-50
2022/06/23 01:53:33;;;;;;;;;;;;;;;25.46;64.25;99191.44;2067498;28;19925;-49
2022/06/23 01:54:34;;;;;;;;;;;;;;;25.47;64.13;99185.41;2069083;28;20956;-49
2022/06/23 01:55:45;;;;;;;;;;;;;;;25.47;64.80;99187.41;2070294;28;20253;-50
2022/06/23 01:56:51;;;;;;;;;;;;;;;25.46;64.10;99183.13;2066952;28;19924;-48
2022/06/23 01:57:55;;;;;;;;;;;;;;;25.45;63.79;99193.44;2067766;28;19949;-50
2022/06/23 01:58:58;;;;;;;;;;;;;;;25.44;63.63;99182.81;2069301;28;19923;-49
2022/06/23 02:00:08;;;;;;;;;;;;;;;25.46;63.16;99180.34;2068802;28;19916;-48
2022/06/23 02:01:14;;;;;;;;;;;;;;;25.46;63.49;99183.13;2066398;28;20405;-48
2022/06/23 02:02:18;;;;;;;;;;;;;;;25.45;63.44;99176.03;2068048;28;19952;-50
2022/06/23 02:03:41;;;;;;;;;;;;;;;25.45;63.35;99176.03;2062246;28;19905;-50
2022/06/23 02:04:41;;;;;;;;;;;;;;;25.44;63.56;99182.81;2070776;28;20028;-48
2022/06/23 02:05:52;;;;;;;;;;;;;;;25.42;63.60;99175.00;2067893;28;19925;-49
2022/06/23 02:06:52;;;;;;;;;;;;;;;25.44;63.70;99182.81;2069718;28;20355;-48
2022/06/23 02:08:04;;;;;;;;;;;;;;;25.43;64.11;99184.09;2067012;28;19917;-48
2022/06/23 02:09:17;;;;;;;;;;;;;;;25.42;64.07;99182.53;2064466;28;20502;-50
2022/06/23 02:10:35;;;;;;;;;;;;;;;25.41;63.91;99181.00;2068630;28;19909;-51
2022/06/23 02:11:38;;;;;;;;;;;;;;;25.40;63.65;99180.25;2062313;28;19975;-51
2022/06/23 02:12:38;;;;;;;;;;;;;;;25.42;63.88;99177.78;2062835;28;19917;-49
2022/06/23 02:13:58;;;;;;;;;;;;;;;25.41;64.14;99181.78;2067771;28;19968;-48
2022/06/23 02:14:58;;;;;;;;;;;;;;;25.41;64.24;99176.22;2062451;28;19913;-49
2022/06/23 02:16:17;;;;;;;;;;;;;;;25.41;63.97;99176.22;2066139;28;19932;-47
2022/06/23 02:17:18;;;;;;;;;;;;;;;25.39;63.88;99178.72;2071599;28;19997;-48
2022/06/23 02:18:37;;;;;;;;;;;;;;;25.40;63.63;99174.69;2075431;28;19936;-49
2022/06/23 02:19:48;;;;;;;;;;;;;;;25.40;63.94;99169.16;2061927;28;19918;-48
2022/06/23 02:20:54;;;;;;;;;;;;;;;25.41;64.07;99178.25;2066460;28;20097;-49
2022/06/23 02:22:02;;;;;;;;;;;;;;;25.39;63.78;99170.38;2069083;28;19984;-48
2022/06/23 02:23:08;;;;;;;;;;;;;;;25.40;63.68;99168.38;2067560;28;20163;-48
2022/06/23 02:24:26;;;;;;;;;;;;;;;25.39;64.01;99164.09;2069660;28;19917;-48
2022/06/23 02:25:30;;;;;;;;;;;;;;;25.38;63.89;99166.09;2064363;28;19909;-48
2022/06/23 02:26:33;;;;;;;;;;;;;;;25.38;63.34;99168.13;2068909;28;19913;-47
2022/06/23 02:27:33;;;;;;;;;;;;;;;25.39;63.63;99172.41;2068634;28;20345;-48
2022/06/23 02:28:34;;;;;;;;;;;;;;;25.39;63.44;99177.94;2068441;28;19909;-49
2022/06/23 02:29:49;;;;;;;;;;;;;;;25.39;63.67;99172.41;2068379;28;19924;-50
2022/06/23 02:31:00;;;;;;;;;;;;;;;25.37;64.27;99174.91;2066484;28;19923;-48
2022/06/23 02:32:01;;;;;;;;;;;;;;;25.37;64.61;99181.22;2066616;28;19917;-51
2022/06/23 02:33:18;;;;;;;;;;;;;;;25.37;64.73;99178.44;2066668;28;19917;-49
2022/06/23 02:34:22;;;;;;;;;;;;;;;25.37;64.90;99172.91;2068260;28;20016;-51
2022/06/23 02:35:32;;;;;;;;;;;;;;;25.36;64.60;99168.59;2069434;28;19949;-49
2022/06/23 02:36:42;;;;;;;;;;;;;;;25.36;64.75;99174.13;2069460;28;19971;-47
2022/06/23 02:37:48;;;;;;;;;;;;;;;25.37;64.80;99174.91;2065026;28;19913;-49
2022/06/23 02:38:51;;;;;;;;;;;;;;;25.36;64.58;99174.13;2067405;28;20170;-50
2022/06/23 02:39:53;;;;;;;;;;;;;;;25.36;63.88;99173.38;2069372;28;19917;-47
2022/06/23 02:40:56;;;;;;;;;;;;;;;25.36;64.19;99173.38;2069138;28;19909;-48
2022/06/23 02:41:59;;;;;;;;;;;;;;;25.36;64.37;99174.13;2066333;28;19963;-47
2022/06/23 02:43:10;;;;;;;;;;;;;;;25.36;64.70;99181.69;2066176;28;20652;-48
2022/06/23 02:44:19;;;;;;;;;;;;;;;25.35;64.71;99177.38;2065681;28;19917;-48
2022/06/23 02:45:19;;;;;;;;;;;;;;;25.35;64.59;99180.91;2070224;28;19967;-49
2022/06/23 02:46:20;;;;;;;;;;;;;;;25.34;65.02;99187.69;2069387;28;20169;-50
2022/06/23 02:47:39;;;;;;;;;;;;;;;25.34;64.27;99181.38;2067495;28;19925;-48
2022/06/23 02:48:48;;;;;;;;;;;;;;;25.34;64.21;99175.84;2066684;28;19922;-48
2022/06/23 02:49:52;;;;;;;;;;;;;;;25.32;64.59;99176.34;2069910;28;20297;-48
2022/06/23 02:50:55;;;;;;;;;;;;;;;25.32;64.28;99176.34;2065910;28;20658;-49
2022/06/23 02:52:01;;;;;;;;;;;;;;;25.31;64.64;99171.25;2068815;28;19938;-47
2022/06/23 02:53:17;;;;;;;;;;;;;;;25.33;64.59;99174.34;2070528;28;19921;-49
2022/06/23 02:54:32;;;;;;;;;;;;;;;25.33;65.01;99179.88;2063143;28;19971;-48
2022/06/23 02:55:51;;;;;;;;;;;;;;;25.32;65.49;99175.56;2069389;28;19923;-51
2022/06/23 02:57:01;;;;;;;;;;;;;;;25.32;65.63;99175.56;2067361;28;20381;-49
2022/06/23 02:58:09;;;;;;;;;;;;;;;25.31;65.82;99176.81;2069848;28;19921;-49
2022/06/23 02:59:27;;;;;;;;;;;;;;;25.31;65.42;99171.25;2066503;28;20655;-50
2022/06/23 03:00:27;;;;;;;;;;;;;;;25.30;65.65;99176.03;2070535;28;19967;-48
2022/06/23 03:01:36;;;;;;;;;;;;;;;25.30;65.73;99175.28;2069357;28;19905;-51
2022/06/23 03:02:41;;;;;;;;;;;;;;;25.30;65.54;99176.03;2068079;28;19920;-49
2022/06/23 03:03:52;;;;;;;;;;;;;;;25.31;65.11;99183.13;2069248;28;20386;-48
2022/06/23 03:04:56;;;;;;;;;;;;;;;25.30;65.15;99180.81;2069939;28;19920;-48
2022/06/23 03:06:04;;;;;;;;;;;;;;;25.30;64.65;99172.50;2068569;28;19917;-46
2022/06/23 03:07:13;;;;;;;;;;;;;;;25.30;64.35;99175.28;2068624;28;20173;-51
2022/06/23 03:08:19;;;;;;;;;;;;;;;25.29;64.55;99171.72;2068871;28;19917;-47
2022/06/23 03:09:26;;;;;;;;;;;;;;;25.29;64.70;99170.97;2067062;28;20279;-47
2022/06/23 03:10:40;;;;;;;;;;;;;;;25.29;64.78;99170.97;2062111;28;19922;-49
2022/06/23 03:11:52;;;;;;;;;;;;;;;25.29;65.22;99179.28;2069364;28;20317;-48
2022/06/23 03:13:11;;;;;;;;;;;;;;;25.30;65.14;99178.03;2069661;28;19927;-51
2022/06/23 03:14:20;;;;;;;;;;;;;;;25.29;65.00;99173.72;2067330;28;19939;-51
2022/06/23 03:15:34;;;;;;;;;;;;;;;25.29;65.03;99174.50;2063386;28;19921;-48
2022/06/23 03:16:36;;;;;;;;;;;;;;;25.28;65.32;99170.19;2067562;28;19929;-48
2022/06/23 03:17:39;;;;;;;;;;;;;;;25.28;65.60;99169.44;2067844;28;19963;-48
2022/06/23 03:18:45;;;;;;;;;;;;;;;25.27;65.53;99165.91;2062484;28;19968;-47
2022/06/23 03:20:10;;;;;;;;;;;;;;;25.28;65.51;99163.88;2063663;28;19928;-48
2022/06/23 03:21:40;;;;;;;;;;;;;;;25.27;65.36;99170.69;2065592;28;19915;-48
2022/06/23 03:22:55;;;;;;;;;;;;;;;25.26;64.73;99164.38;2066880;28;19979;-49
2022/06/23 03:23:58;;;;;;;;;;;;;;;25.27;64.65;99173.47;2061562;28;19918;-48
2022/06/23 03:25:12;;;;;;;;;;;;;;;25.26;64.72;99166.38;2068235;28;20405;-49
2022/06/23 03:26:19;;;;;;;;;;;;;;;25.26;65.51;99175.47;2066107;28;19917;-48
2022/06/23 03:27:28;;;;;;;;;;;;;;;25.26;65.41;99174.69;2069291;28;19915;-48
2022/06/23 03:28:39;;;;;;;;;;;;;;;25.25;66.07;99173.94;2068061;28;19913;-48
2022/06/23 03:30:00;;;;;;;;;;;;;;;25.25;66.12;99168.38;2066764;28;20206;-48
2022/06/23 03:31:04;;;;;;;;;;;;;;;25.23;66.34;99177.16;2066411;28;19956;-49
2022/06/23 03:32:18;;;;;;;;;;;;;;;25.24;66.14;99172.41;2069053;28;20282;-49
2022/06/23 03:33:25;;;;;;;;;;;;;;;25.21;66.20;99171.38;2068771;28;19920;-48
2022/06/23 03:34:30;;;;;;;;;;;;;;;25.22;65.53;99167.31;2067785;28;20346;-48
2022/06/23 03:35:41;;;;;;;;;;;;;;;25.22;65.39;99170.09;2071039;28;19983;-48
2022/06/23 03:36:44;;;;;;;;;;;;;;;25.21;65.44;99168.59;2067218;28;20004;-48
2022/06/23 03:37:50;;;;;;;;;;;;;;;25.22;65.36;99166.59;2066008;28;19918;-50
2022/06/23 03:41:59;;;;;;;;;;;;;;;25.20;65.42;99161.50;2068418;28;19917;-48
2022/06/23 03:43:06;;;;;;;;;;;;;;;25.20;66.04;99158.75;2065053;28;19909;-50
2022/06/23 03:44:09;;;;;;;;;;;;;;;25.19;65.95;99159.97;2067261;28;20130;-48
2022/06/23 03:45:30;;;;;;;;;;;;;;;25.20;65.76;99155.97;2067472;28;20341;-49
2022/06/23 03:46:40;;;;;;;;;;;;;;;25.19;65.96;99157.22;2066903;28;20189;-49
2022/06/23 03:47:59;;;;;;;;;;;;;;;25.19;66.18;99150.91;2067592;28;20149;-47
2022/06/23 03:49:02;;;;;;;;;;;;;;;25.19;66.12;99148.13;2075088;28;20338;-49
2022/06/23 03:50:14;;;;;;;;;;;;;;;25.17;65.27;99159.69;2073382;28;19917;-48
2022/06/23 03:51:17;;;;;;;;;;;;;;;25.17;65.27;99145.81;2066675;28;20014;-51
2022/06/23 03:52:27;;;;;;;;;;;;;;;25.17;65.34;99145.06;2067530;28;19932;-50
2022/06/23 03:53:32;;;;;;;;;;;;;;;25.17;65.79;99140.28;2066489;28;20331;-49
2022/06/23 03:54:55;;;;;;;;;;;;;;;25.16;66.51;99144.31;2066102;28;19921;-50
2022/06/23 03:56:01;;;;;;;;;;;;;;;25.17;66.42;99139.50;2061887;28;19925;-47
2022/06/23 03:57:16;;;;;;;;;;;;;;;25.16;66.32;99138.78;2069916;28;19925;-50
2022/06/23 03:58:24;;;;;;;;;;;;;;;25.15;66.42;99140.00;2064288;28;19945;-49
2022/06/23 03:59:41;;;;;;;;;;;;;;;25.15;65.72;99142.03;2069074;28;20004;-48
2022/06/23 04:01:04;;;;;;;;;;;;;;;25.15;65.72;99142.78;2068607;28;20745;-48
2022/06/23 04:02:12;;;;;;;;;;;;;;;25.15;65.24;99139.25;2062149;28;19914;-48
2022/06/23 04:03:18;;;;;;;;;;;;;;;25.14;65.17;99141.25;2070402;28;19952;-48
2022/06/23 04:04:21;;;;;;;;;;;;;;;25.14;65.11;99144.03;2067523;28;19980;-47
2022/06/23 04:05:29;;;;;;;;;;;;;;;25.13;65.43;99134.16;2063530;28;19909;-48
2022/06/23 04:06:35;;;;;;;;;;;;;;;25.13;64.51;99141.72;2068964;28;19921;-47
2022/06/23 04:07:44;;;;;;;;;;;;;;;25.13;64.81;99138.94;2067101;28;19963;-50
2022/06/23 04:09:00;;;;;;;;;;;;;;;25.13;64.75;99150.78;2064845;28;19913;-47
2022/06/23 04:10:11;;;;;;;;;;;;;;;25.11;64.56;99136.69;2068717;28;19928;-47
2022/06/23 04:12:34;;;;;;;;;;;;;;;25.11;64.09;99135.91;2066798;28;19921;-49
2022/06/23 04:13:36;;;;;;;;;;;;;;;25.10;64.21;99134.38;2063395;28;19921;-51
2022/06/23 04:14:46;;;;;;;;;;;;;;;25.10;64.22;99131.59;2068418;28;19935;-47
2022/06/23 04:15:49;;;;;;;;;;;;;;;25.10;64.12;99132.38;2063163;28;19970;-48
2022/06/23 04:16:52;;;;;;;;;;;;;;;25.11;64.28;99133.13;2064571;28;19925;-51
2022/06/23 04:18:05;;;;;;;;;;;;;;;25.11;64.36;99135.91;2066776;28;19924;-48
2022/06/23 04:19:13;;;;;;;;;;;;;;;25.08;64.57;99126.53;2069709;28;19909;-51
2022/06/23 04:20:13;;;;;;;;;;;;;;;25.10;65.21;99129.59;2068375;28;20362;-47
2022/06/23 04:21:19;;;;;;;;;;;;;;;25.09;65.38;99125.28;2062929;28;19925;-47
2022/06/23 04:22:26;;;;;;;;;;;;;;;25.09;65.66;99127.28;2066989;28;19921;-48
2022/06/23 04:23:29;;;;;;;;;;;;;;;25.10;65.23;99126.06;2065789;28;19917;-47
2022/06/23 04:24:30;;;;;;;;;;;;;;;25.08;65.62;99129.31;2063441;28;20233;-49
2022/06/23 04:25:40;;;;;;;;;;;;;;;25.07;65.90;99130.53;2068879;28;19917;-50
2022/06/23 04:26:42;;;;;;;;;;;;;;;25.07;65.40;99130.53;2067991;28;20298;-47
2022/06/23 04:27:55;;;;;;;;;;;;;;;25.07;65.72;99136.06;2069031;28;19948;-47
2022/06/23 04:28:57;;;;;;;;;;;;;;;25.08;65.59;99134.84;2064577;28;20352;-47
2022/06/23 04:29:59;;;;;;;;;;;;;;;25.09;64.78;99132.84;2067214;28;19905;-48
2022/06/23 04:31:01;;;;;;;;;;;;;;;25.08;64.24;99132.06;2069204;28;19974;-47
2022/06/23 04:32:05;;;;;;;;;;;;;;;25.08;64.63;99129.31;2067619;28;20645;-46
2022/06/23 04:33:07;;;;;;;;;;;;;;;25.09;65.11;99138.38;2075643;28;19920;-48
2022/06/23 04:34:36;;;;;;;;;;;;;;;25.07;65.07;99138.84;2068746;28;19921;-47
2022/06/23 04:35:38;;;;;;;;;;;;;;;25.08;64.30;99137.59;2066368;28;19988;-49
2022/06/23 04:36:43;;;;;;;;;;;;;;;25.08;64.12;99131.31;2068238;28;19905;-47
2022/06/23 04:37:54;;;;;;;;;;;;;;;25.09;64.38;99135.59;2060634;28;19913;-48
2022/06/23 04:39:00;;;;;;;;;;;;;;;25.06;64.53;99134.53;2068329;28;20229;-47
2022/06/23 04:40:21;;;;;;;;;;;;;;;25.06;64.83;99140.09;2067046;28;19905;-47
2022/06/23 04:41:24;;;;;;;;;;;;;;;25.06;65.23;99133.81;2067485;28;20020;-49
2022/06/23 04:42:26;;;;;;;;;;;;;;;25.05;65.23;99127.50;2068695;28;19925;-47
2022/06/23 04:43:26;;;;;;;;;;;;;;;25.05;65.11;99138.56;2067343;28;20381;-49
2022/06/23 04:44:29;;;;;;;;;;;;;;;25.05;64.96;99138.56;2067566;28;19917;-48
2022/06/23 04:45:36;;;;;;;;;;;;;;;25.05;65.17;99138.56;2069448;28;19917;-48
2022/06/23 04:46:57;;;;;;;;;;;;;;;25.05;65.23;99146.13;2068043;28;19913;-47
2022/06/23 04:47:59;;;;;;;;;;;;;;;25.05;64.52;99143.34;2066997;28;20197;-48
2022/06/23 04:49:04;;;;;;;;;;;;;;;25.05;65.17;99143.34;2069021;28;19931;-47
2022/06/23 04:50:12;;;;;;;;;;;;;;;25.05;64.54;99133.03;2066971;28;19917;-51
2022/06/23 04:51:33;;;;;;;;;;;;;;;25.05;65.43;99144.13;2067854;28;19921;-47
2022/06/23 04:52:53;;;;;;;;;;;;;;;25.04;65.34;99148.13;2069480;28;19924;-50
2022/06/23 04:53:53;;;;;;;;;;;;;;;25.03;64.84;99141.03;2062290;28;20334;-49
2022/06/23 04:55:13;;;;;;;;;;;;;;;25.03;64.59;99143.81;2067774;28;19917;-48
2022/06/23 04:56:16;;;;;;;;;;;;;;;25.03;64.54;99143.06;2067085;28;19917;-47
2022/06/23 04:57:36;;;;;;;;;;;;;;;25.03;64.30;99141.03;2068674;28;20235;-48
2022/06/23 04:58:41;;;;;;;;;;;;;;;25.03;63.89;99138.28;2056071;28;19925;-48
2022/06/23 04:59:48;;;;;;;;;;;;;;;25.03;64.28;99141.03;2067047;28;20259;-47
2022/06/23 05:00:50;;;;;;;;;;;;;;;25.02;64.22;99144.28;2068885;28;19920;-51
2022/06/23 05:01:52;;;;;;;;;;;;;;;25.03;64.19;99146.59;2067386;28;19921;-48
2022/06/23 05:03:00;;;;;;;;;;;;;;;25.03;64.60;99146.59;2067662;28;19917;-48
2022/06/23 05:04:03;;;;;;;;;;;;;;;25.02;65.13;99158.13;2067898;28;19913;-48
2022/06/23 05:05:18;;;;;;;;;;;;;;;25.02;64.85;99147.81;2065140;28;19913;-51
2022/06/23 05:06:28;;;;;;;;;;;;;;;25.01;64.28;99142.78;2074227;28;19912;-49
2022/06/23 05:07:31;;;;;;;;;;;;;;;25.01;64.41;99140.00;2061255;28;20028;-47
2022/06/23 05:08:32;;;;;;;;;;;;;;;25.00;64.46;99133.69;2067103;28;20004;-51
2022/06/23 05:09:38;;;;;;;;;;;;;;;25.00;64.78;99136.47;2066423;28;19917;-48
2022/06/23 05:10:45;;;;;;;;;;;;;;;25.01;65.38;99137.25;2064443;28;19916;-47
2022/06/23 05:11:53;;;;;;;;;;;;;;;25.00;65.37;99136.47;2065524;28;19928;-48
2022/06/23 05:12:59;;;;;;;;;;;;;;;25.00;65.65;99141.25;2065165;28;20390;-49
2022/06/23 05:14:05;;;;;;;;;;;;;;;24.99;65.05;99134.94;2058142;28;19933;-48
2022/06/23 05:15:15;;;;;;;;;;;;;;;24.99;65.26;99134.94;2059327;28;20717;-48
2022/06/23 05:16:30;;;;;;;;;;;;;;;24.99;65.14;99134.94;2062794;28;19921;-48
2022/06/23 05:17:34;;;;;;;;;;;;;;;24.99;65.11;99134.94;2066426;28;19923;-50
2022/06/23 05:18:40;;;;;;;;;;;;;;;25.00;65.05;99135.69;2062401;28;20251;-48
2022/06/23 05:19:41;;;;;;;;;;;;;;;24.99;64.93;99131.41;2069243;28;19967;-51
2022/06/23 05:20:48;;;;;;;;;;;;;;;24.98;65.18;99136.16;2067756;28;19917;-48
2022/06/23 05:21:52;;;;;;;;;;;;;;;24.97;65.29;99137.41;2063085;28;19921;-48
2022/06/23 05:22:52;;;;;;;;;;;;;;;24.98;65.35;99136.16;2070063;28;20269;-47
2022/06/23 05:24:13;;;;;;;;;;;;;;;24.97;65.04;99131.88;2068567;28;19928;-47
2022/06/23 05:25:13;;;;;;;;;;;;;;;24.96;64.73;99135.09;2061916;28;19927;-48
2022/06/23 05:26:34;;;;;;;;;;;;;;;24.97;64.76;99131.88;2070191;28;19917;-47
2022/06/23 05:27:35;;;;;;;;;;;;;;;24.96;65.09;99127.56;2053046;28;20324;-48
2022/06/23 05:28:37;;;;;;;;;;;;;;;24.96;64.73;99124.03;2063331;28;19927;-48
2022/06/23 05:29:46;;;;;;;;;;;;;;;24.96;65.33;99130.34;2070773;28;19943;-48
2022/06/23 05:31:00;;;;;;;;;;;;;;;24.97;65.19;99125.56;2069658;28;19921;-49
2022/06/23 05:32:03;;;;;;;;;;;;;;;24.96;64.84;99127.56;2068898;28;19988;-47
2022/06/23 05:33:07;;;;;;;;;;;;;;;24.96;64.56;99129.56;2070882;28;20481;-47
2022/06/23 05:34:12;;;;;;;;;;;;;;;24.96;65.04;99133.09;2069245;28;19925;-47
2022/06/23 05:35:15;;;;;;;;;;;;;;;24.96;64.70;99135.09;2069142;28;20294;-49
2022/06/23 05:36:27;;;;;;;;;;;;;;;24.96;64.70;99138.66;2069494;28;20253;-47
2022/06/23 05:37:31;;;;;;;;;;;;;;;24.95;64.78;99128.81;2069602;28;20004;-49
2022/06/23 05:38:38;;;;;;;;;;;;;;;24.95;64.80;99128.06;2069318;28;20321;-47
2022/06/23 05:39:39;;;;;;;;;;;;;;;24.95;64.69;99133.59;2068346;28;19969;-49
2022/06/23 05:40:47;;;;;;;;;;;;;;;24.95;64.48;99128.81;2071166;28;19939;-48
2022/06/23 05:41:51;;;;;;;;;;;;;;;24.95;64.97;99134.38;2068103;28;20019;-49
2022/06/23 05:42:54;;;;;;;;;;;;;;;24.96;64.87;99141.41;2069947;28;20278;-50
2022/06/23 05:43:56;;;;;;;;;;;;;;;24.95;65.04;99145.44;2068248;28;19921;-49
2022/06/23 05:44:59;;;;;;;;;;;;;;;24.96;64.68;99146.19;2068692;28;19921;-48
2022/06/23 05:46:02;;;;;;;;;;;;;;;24.96;64.14;99146.19;2069996;28;20545;-48
2022/06/23 05:47:02;;;;;;;;;;;;;;;24.96;64.55;99146.94;2069481;28;20342;-47
2022/06/23 05:48:04;;;;;;;;;;;;;;;24.95;64.22;99150.22;2069229;28;19913;-50
2022/06/23 05:49:11;;;;;;;;;;;;;;;24.96;64.10;99148.94;2066126;28;19921;-49
2022/06/23 05:50:15;;;;;;;;;;;;;;;24.96;64.69;99151.72;2069121;28;19967;-48
2022/06/23 05:51:22;;;;;;;;;;;;;;;24.96;64.17;99158.03;2068270;28;19988;-48
2022/06/23 05:52:25;;;;;;;;;;;;;;;24.96;63.71;99160.03;2070726;28;20711;-49
2022/06/23 05:53:25;;;;;;;;;;;;;;;24.94;63.40;99157.75;2070085;28;20130;-50
2022/06/23 05:54:35;;;;;;;;;;;;;;;24.94;63.66;99160.53;2067330;28;19952;-48
2022/06/23 05:55:35;;;;;;;;;;;;;;;24.94;62.95;99166.06;2069734;28;20074;-49